createdAt,value
2022-10-12T00:01:43.467Z,97392.47
2022-10-12T00:04:40.321Z,97399.59
2022-10-12T00:07:37.850Z,97393.81
2022-10-12T00:10:39.536Z,97392.44
2022-10-12T00:13:36.400Z,97400.41
2022-10-12T00:16:34.806Z,97390.06
2022-10-12T00:19:31.662Z,97384.13
2022-10-12T00:22:28.514Z,97396.63
2022-10-12T00:25:25.359Z,97391.00
2022-10-12T00:28:22.254Z,97392.16
2022-10-12T00:31:20.956Z,97396.75
2022-10-12T00:34:17.780Z,97390.56
2022-10-12T00:37:14.610Z,97394.56
2022-10-12T00:40:12.589Z,97389.03
2022-10-12T00:43:34.391Z,97398.03
2022-10-12T00:46:41.999Z,97394.72
2022-10-12T00:49:39.262Z,97390.13
2022-10-12T00:52:48.740Z,97385.03
2022-10-12T00:56:00.122Z,97386.63
2022-10-12T00:59:02.549Z,97388.88
2022-10-12T01:01:59.487Z,97382.38
2022-10-12T01:04:57.634Z,97385.47
2022-10-12T01:07:54.460Z,97379.97
2022-10-12T01:10:51.363Z,97374.66
2022-10-12T01:13:48.479Z,97383.34
2022-10-12T01:17:03.103Z,97378.13
2022-10-12T01:20:23.945Z,97375.94
2022-10-12T01:23:53.796Z,97379.00
2022-10-12T01:27:24.288Z,97375.47
2022-10-12T01:30:36.447Z,97384.06
2022-10-12T01:33:40.757Z,97378.84
2022-10-12T01:36:42.754Z,97382.47
2022-10-12T01:39:49.473Z,97377.22
2022-10-12T01:42:47.761Z,97369.22
2022-10-12T01:45:44.896Z,97368.47
2022-10-12T01:48:43.441Z,97376.50
2022-10-12T01:52:27.261Z,97379.41
2022-10-12T01:55:54.065Z,97371.28
2022-10-12T01:59:37.820Z,97368.06
2022-10-12T02:03:02.289Z,97377.53
2022-10-12T02:06:22.422Z,97369.72
2022-10-12T02:09:30.605Z,97373.34
2022-10-12T02:12:31.396Z,97368.47
2022-10-12T02:15:29.436Z,97370.31
2022-10-12T02:18:29.040Z,97370.09
2022-10-12T02:21:33.000Z,97370.47
2022-10-12T02:24:35.182Z,97369.38
2022-10-12T02:27:36.798Z,97364.59
2022-10-12T02:30:43.222Z,97361.66
2022-10-12T02:33:56.782Z,97355.84
2022-10-12T02:37:08.100Z,97356.13
2022-10-12T02:40:19.441Z,97346.91
2022-10-12T02:43:40.135Z,97347.25
2022-10-12T02:46:38.816Z,97347.41
2022-10-12T02:49:37.777Z,97340.91
2022-10-12T02:52:35.353Z,97336.16
2022-10-12T02:55:37.308Z,97345.13
2022-10-12T02:58:34.237Z,97333.53
2022-10-12T03:01:31.149Z,97335.50
2022-10-12T03:04:28.097Z,97332.16
2022-10-12T03:07:24.989Z,97328.97
2022-10-12T03:10:21.825Z,97336.28
2022-10-12T03:13:19.394Z,97335.88
2022-10-12T03:16:16.266Z,97341.28
2022-10-12T03:19:13.252Z,97336.63
2022-10-12T03:22:10.096Z,97340.06
2022-10-12T03:25:07.414Z,97340.91
2022-10-12T03:28:04.301Z,97344.00
2022-10-12T03:31:01.601Z,97342.34
2022-10-12T03:33:58.462Z,97346.28
2022-10-12T03:36:55.344Z,97345.06
2022-10-12T03:39:52.176Z,97343.03
2022-10-12T03:42:49.050Z,97342.72
2022-10-12T03:45:46.169Z,97339.38
2022-10-12T03:48:43.000Z,97336.91
2022-10-12T03:51:39.872Z,97339.38
2022-10-12T03:54:36.730Z,97332.63
2022-10-12T03:57:33.589Z,97340.81
2022-10-12T04:00:30.594Z,97338.41
2022-10-12T04:03:27.450Z,97343.81
2022-10-12T04:06:24.401Z,97336.56
2022-10-12T04:09:21.227Z,97342.19
2022-10-12T04:12:18.093Z,97336.16
2022-10-12T04:15:15.193Z,97332.22
2022-10-12T04:18:12.525Z,97336.00
2022-10-12T04:21:15.834Z,97328.31
2022-10-12T04:24:12.679Z,97330.19
2022-10-12T04:27:09.540Z,97332.56
2022-10-12T04:30:07.193Z,97329.97
2022-10-12T04:33:04.578Z,97332.94
2022-10-12T04:36:01.458Z,97333.66
2022-10-12T04:39:01.065Z,97336.25
2022-10-12T04:41:58.319Z,97341.53
2022-10-12T04:44:55.199Z,97345.66
2022-10-12T04:47:52.037Z,97344.50
2022-10-12T04:50:48.897Z,97348.38
2022-10-12T04:53:45.825Z,97333.00
2022-10-12T04:56:47.534Z,97342.78
2022-10-12T04:59:44.890Z,97341.56
2022-10-12T05:02:41.828Z,97330.81
2022-10-12T05:05:38.700Z,97331.91
2022-10-12T05:08:35.541Z,97336.09
2022-10-12T05:11:32.421Z,97332.78
2022-10-12T05:14:33.522Z,97329.75
2022-10-12T05:17:33.009Z,97325.91
2022-10-12T05:20:29.873Z,97332.38
2022-10-12T05:23:26.689Z,97333.03
2022-10-12T05:26:23.546Z,97329.00
2022-10-12T05:29:20.390Z,97337.94
2022-10-12T05:32:17.315Z,97325.84
2022-10-12T05:35:14.363Z,97333.06
2022-10-12T05:38:11.705Z,97333.19
2022-10-12T05:41:08.576Z,97335.97
2022-10-12T05:44:05.970Z,97341.50
2022-10-12T05:47:03.124Z,97336.91
2022-10-12T05:50:00.037Z,97337.97
2022-10-12T05:52:56.846Z,97338.72
2022-10-12T05:55:56.549Z,97341.59
2022-10-12T05:58:53.388Z,97341.34
2022-10-12T06:01:50.280Z,97344.44
2022-10-12T06:04:47.152Z,97339.47
2022-10-12T06:07:44.037Z,97343.94
2022-10-12T06:10:47.247Z,97342.81
2022-10-12T06:13:44.142Z,97337.03
2022-10-12T06:16:40.980Z,97338.66
2022-10-12T06:19:37.869Z,97335.69
2022-10-12T06:22:35.356Z,97338.72
2022-10-12T06:25:32.588Z,97333.66
2022-10-12T06:28:29.572Z,97333.34
2022-10-12T06:31:27.721Z,97336.06
2022-10-12T06:34:24.611Z,97340.06
2022-10-12T06:37:48.125Z,97338.16
2022-10-12T06:40:38.254Z,97338.16
2022-10-12T06:43:35.261Z,97334.19
2022-10-12T06:46:32.332Z,97338.69
2022-10-12T06:49:29.240Z,97335.63
2022-10-12T06:52:26.105Z,97343.41
2022-10-12T06:55:22.952Z,97341.56
2022-10-12T06:58:19.889Z,97340.44
2022-10-12T07:01:16.830Z,97346.72
2022-10-12T07:04:13.718Z,97348.81
2022-10-12T07:07:10.544Z,97349.22
2022-10-12T07:10:08.645Z,97347.44
2022-10-12T07:13:05.739Z,97342.63
2022-10-12T07:16:02.643Z,97341.16
2022-10-12T07:18:59.480Z,97352.16
2022-10-12T07:21:56.314Z,97344.06
2022-10-12T07:24:53.160Z,97342.38
2022-10-12T07:27:50.261Z,97339.41
2022-10-12T07:30:47.633Z,97340.19
2022-10-12T07:33:44.521Z,97339.53
2022-10-12T07:36:58.705Z,97342.47
2022-10-12T07:39:57.693Z,97341.97
2022-10-12T07:43:14.764Z,97334.69
2022-10-12T07:46:12.288Z,97335.31
2022-10-12T07:49:11.323Z,97329.00
2022-10-12T07:52:08.176Z,97330.41
2022-10-12T07:55:05.479Z,97331.88
2022-10-12T07:58:02.324Z,97329.09
2022-10-12T08:01:10.096Z,97337.22
2022-10-12T08:04:06.954Z,97335.97
2022-10-12T08:07:04.021Z,97334.53
2022-10-12T08:10:00.861Z,97328.06
2022-10-12T08:12:57.744Z,97333.47
2022-10-12T08:15:54.595Z,97324.16
2022-10-12T08:18:51.628Z,97318.91
2022-10-12T08:21:50.421Z,97312.25
2022-10-12T08:24:47.267Z,97315.78
2022-10-12T08:27:44.139Z,97306.41
2022-10-12T08:30:40.979Z,97313.00
2022-10-12T08:33:37.880Z,97312.34
2022-10-12T08:36:34.837Z,97302.09
2022-10-12T08:39:31.665Z,97303.25
2022-10-12T08:42:48.612Z,97304.56
2022-10-12T08:45:56.015Z,97295.59
2022-10-12T08:49:02.890Z,97282.44
2022-10-12T08:52:06.288Z,97279.44
2022-10-12T08:55:43.749Z,97279.75
2022-10-12T08:58:40.691Z,97277.72
2022-10-12T09:01:59.326Z,97274.53
2022-10-12T09:05:16.775Z,97274.91
2022-10-12T09:08:36.801Z,97277.47
2022-10-12T09:11:58.365Z,97277.13
2022-10-12T09:15:01.012Z,97282.91
2022-10-12T09:18:00.421Z,97282.03
2022-10-12T09:20:59.350Z,97287.63
2022-10-12T09:23:57.633Z,97274.34
2022-10-12T09:27:00.710Z,97271.50
2022-10-12T09:30:03.668Z,97269.94
2022-10-12T09:33:37.998Z,97264.25
2022-10-12T09:36:41.144Z,97268.13
2022-10-12T09:39:39.615Z,97264.47
2022-10-12T09:42:37.296Z,97272.94
2022-10-12T09:45:35.184Z,97264.97
2022-10-12T09:48:32.024Z,97273.34
2022-10-12T09:51:30.692Z,97252.00
2022-10-12T09:54:28.545Z,97256.31
2022-10-12T09:57:39.397Z,97259.50
2022-10-12T10:00:36.196Z,97256.16
2022-10-12T10:03:33.130Z,97260.78
2022-10-12T10:06:30.002Z,97252.22
2022-10-12T10:09:34.880Z,97257.91
2022-10-12T10:12:32.181Z,97259.34
2022-10-12T10:15:35.677Z,97260.44
2022-10-12T10:18:55.914Z,97250.59
2022-10-12T10:21:54.531Z,97257.91
2022-10-12T10:24:59.750Z,97254.88
2022-10-12T10:28:23.504Z,97256.47
2022-10-12T10:31:28.249Z,97255.19
2022-10-12T10:34:25.504Z,97250.28
2022-10-12T10:37:23.447Z,97251.41
2022-10-12T10:40:29.385Z,97249.00
2022-10-12T10:43:31.482Z,97256.53
2022-10-12T10:46:33.920Z,97259.00
2022-10-12T10:49:57.474Z,97252.72
2022-10-12T10:53:00.778Z,97246.25
2022-10-12T10:56:14.124Z,97258.03
2022-10-12T10:59:27.287Z,97250.34
2022-10-12T11:02:32.946Z,97246.88
2022-10-12T11:05:38.260Z,97233.66
2022-10-12T11:08:36.867Z,97237.56
2022-10-12T11:11:38.127Z,97235.94
2022-10-12T11:14:47.992Z,97232.03
2022-10-12T11:17:52.054Z,97233.78
2022-10-12T11:21:22.515Z,97228.53
2022-10-12T11:24:33.953Z,97227.09
2022-10-12T11:27:39.860Z,97218.00
2022-10-12T11:30:45.425Z,97212.81
2022-10-12T11:33:44.802Z,97212.81
2022-10-12T11:37:07.539Z,97204.91
2022-10-12T11:40:23.586Z,97216.03
2022-10-12T11:43:30.348Z,97206.28
2022-10-12T11:46:49.012Z,97203.78
2022-10-12T11:49:59.856Z,97203.88
2022-10-12T11:53:00.059Z,97203.75
2022-10-12T11:56:20.060Z,97192.97
2022-10-12T11:59:33.769Z,97205.22
2022-10-12T12:02:41.655Z,97198.56
2022-10-12T12:05:38.509Z,97190.16
2022-10-12T12:08:41.141Z,97186.47
2022-10-12T12:11:38.032Z,97178.72
2022-10-12T12:14:34.712Z,97174.59
2022-10-12T12:17:33.160Z,97168.06
2022-10-12T12:21:00.715Z,97171.28
2022-10-12T12:23:57.659Z,97167.88
2022-10-12T12:26:54.565Z,97161.84
2022-10-12T12:29:53.613Z,97161.31
2022-10-12T12:33:07.549Z,97149.56
2022-10-12T12:36:08.313Z,97157.56
2022-10-12T12:39:08.631Z,97151.09
2022-10-12T12:42:09.626Z,97151.75
2022-10-12T12:45:32.487Z,97142.09
2022-10-12T12:48:46.966Z,97153.84
2022-10-12T12:51:44.868Z,97146.97
2022-10-12T12:54:53.120Z,97144.41
2022-10-12T12:58:02.377Z,97146.63
2022-10-12T13:01:27.373Z,97148.41
2022-10-12T13:04:46.959Z,97150.84
2022-10-12T13:08:32.380Z,97148.22
2022-10-12T13:12:12.432Z,97144.78
2022-10-12T13:15:20.431Z,97146.44
2022-10-12T13:18:55.817Z,97139.44
2022-10-12T13:21:55.562Z,97134.72
2022-10-12T13:24:59.423Z,97127.31
2022-10-12T13:27:58.223Z,97135.28
2022-10-12T13:31:09.462Z,97129.88
2022-10-12T13:34:29.632Z,97136.44
2022-10-12T13:37:32.573Z,97129.41
2022-10-12T13:40:35.842Z,97129.16
2022-10-12T13:44:00.684Z,97122.25
2022-10-12T13:47:01.288Z,97116.13
2022-10-12T13:50:00.057Z,97117.56
2022-10-12T13:52:56.969Z,97123.94
2022-10-12T13:56:04.040Z,97120.28
2022-10-12T13:59:06.718Z,97123.50
2022-10-12T14:02:22.418Z,97124.44
2022-10-12T14:05:22.808Z,97120.44
2022-10-12T14:08:27.002Z,97117.00
2022-10-12T14:11:26.630Z,97109.22
2022-10-12T14:14:36.528Z,97110.47
2022-10-12T14:17:33.377Z,97107.00
2022-10-12T14:20:37.671Z,97110.41
2022-10-12T14:23:34.558Z,97108.63
2022-10-12T14:26:45.841Z,97105.00
2022-10-12T14:29:45.602Z,97099.84
2022-10-12T14:32:44.321Z,97097.91
2022-10-12T14:35:43.984Z,97092.78
2022-10-12T14:38:49.506Z,97100.63
2022-10-12T14:41:50.939Z,97105.28
2022-10-12T14:44:49.022Z,97109.81
2022-10-12T14:47:46.282Z,97101.44
2022-10-12T14:50:44.357Z,97105.16
2022-10-12T14:53:41.471Z,97094.84
2022-10-12T14:56:39.053Z,97101.63
2022-10-12T14:59:35.903Z,97090.69
2022-10-12T15:02:33.467Z,97099.94
2022-10-12T15:05:32.655Z,97091.28
2022-10-12T15:08:29.485Z,97100.53
2022-10-12T15:11:26.350Z,97109.38
2022-10-12T15:14:23.203Z,97107.28
2022-10-12T15:17:20.832Z,97113.28
2022-10-12T15:20:18.990Z,97107.34
2022-10-12T15:23:15.910Z,97111.84
2022-10-12T15:26:16.783Z,97106.09
2022-10-12T15:29:13.655Z,97118.97
2022-10-12T15:32:13.650Z,97117.28
2022-10-12T15:35:22.780Z,97117.84
2022-10-12T15:38:19.763Z,97109.31
2022-10-12T15:41:20.323Z,97121.06
2022-10-12T15:44:17.536Z,97117.09
2022-10-12T15:47:14.616Z,97120.53
2022-10-12T15:50:11.857Z,97108.03
2022-10-12T15:53:22.130Z,97107.75
2022-10-12T15:56:20.496Z,97100.19
2022-10-12T15:59:17.357Z,97105.22
2022-10-12T16:02:14.299Z,97099.47
2022-10-12T16:05:22.710Z,97104.53
2022-10-12T16:08:19.705Z,97098.38
2022-10-12T16:11:18.277Z,97097.91
2022-10-12T16:14:15.204Z,97099.44
2022-10-12T16:17:12.324Z,97099.03
2022-10-12T16:20:10.920Z,97100.31
2022-10-12T16:23:14.116Z,97094.75
2022-10-12T16:26:14.519Z,97094.66
2022-10-12T16:29:11.365Z,97089.78
2022-10-12T16:32:08.181Z,97098.38
2022-10-12T16:35:06.609Z,97100.78
2022-10-12T16:38:03.583Z,97116.88
2022-10-12T16:41:00.414Z,97110.50
2022-10-12T16:43:57.267Z,97097.97
2022-10-12T16:46:54.111Z,97106.75
2022-10-12T16:49:52.177Z,97115.41
2022-10-12T16:52:49.655Z,97119.03
2022-10-12T16:55:47.326Z,97117.50
2022-10-12T16:58:44.185Z,97120.03
2022-10-12T17:01:41.429Z,97111.22
2022-10-12T17:04:38.378Z,97113.22
2022-10-12T17:07:35.234Z,97114.31
2022-10-12T17:10:32.081Z,97116.34
2022-10-12T17:13:32.762Z,97120.41
2022-10-12T17:16:48.054Z,97117.81
2022-10-12T17:19:45.016Z,97115.56
2022-10-12T17:22:41.891Z,97111.00
2022-10-12T17:25:38.829Z,97109.19
2022-10-12T17:28:40.245Z,97108.56
2022-10-12T17:31:37.549Z,97106.00
2022-10-12T17:34:38.483Z,97111.69
2022-10-12T17:37:35.360Z,97120.91
2022-10-12T17:40:32.180Z,97119.88
2022-10-12T17:43:29.163Z,97124.03
2022-10-12T17:46:26.162Z,97122.09
2022-10-12T17:49:24.844Z,97124.53
2022-10-12T17:52:21.939Z,97124.63
2022-10-12T17:55:36.540Z,97130.63
2022-10-12T17:58:36.430Z,97124.09
2022-10-12T18:01:33.936Z,97124.19
2022-10-12T18:04:30.845Z,97128.63
2022-10-12T18:07:27.750Z,97126.84
2022-10-12T18:10:27.714Z,97121.84
2022-10-12T18:13:25.776Z,97131.41
2022-10-12T18:16:30.322Z,97125.59
2022-10-12T18:19:27.213Z,97123.16
2022-10-12T18:22:24.087Z,97131.13
2022-10-12T18:25:20.933Z,97131.97
2022-10-12T18:28:18.177Z,97141.34
2022-10-12T18:31:26.734Z,97151.63
2022-10-12T18:34:24.105Z,97145.75
2022-10-12T18:37:20.987Z,97137.41
2022-10-12T18:40:18.026Z,97148.94
2022-10-12T18:43:15.329Z,97141.22
2022-10-12T18:46:15.284Z,97142.47
2022-10-12T18:49:12.221Z,97146.28
2022-10-12T18:52:09.158Z,97143.41
2022-10-12T18:55:06.608Z,97141.28
2022-10-12T18:58:03.815Z,97141.00
2022-10-12T19:01:00.805Z,97138.28
2022-10-12T19:04:00.841Z,97125.22
2022-10-12T19:06:58.050Z,97122.31
2022-10-12T19:09:55.284Z,97124.25
2022-10-12T19:12:52.115Z,97118.88
2022-10-12T19:15:48.947Z,97127.16
2022-10-12T19:18:45.878Z,97127.22
2022-10-12T19:21:44.321Z,97123.47
2022-10-12T19:24:41.185Z,97134.47
2022-10-12T19:27:38.017Z,97131.28
2022-10-12T19:30:38.609Z,97122.81
2022-10-12T19:33:35.518Z,97122.53
2022-10-12T19:36:33.645Z,97127.28
2022-10-12T19:39:32.081Z,97122.00
2022-10-12T19:42:28.896Z,97111.59
2022-10-12T19:45:25.747Z,97123.63
2022-10-12T19:48:22.615Z,97120.94
2022-10-12T19:51:21.443Z,97124.16
2022-10-12T19:54:19.646Z,97117.78
2022-10-12T19:57:16.502Z,97113.00
2022-10-12T20:00:14.316Z,97113.25
2022-10-12T20:03:11.162Z,97101.53
2022-10-12T20:06:10.198Z,97111.44
2022-10-12T20:09:08.189Z,97113.28
2022-10-12T20:12:05.103Z,97112.56
2022-10-12T20:15:02.017Z,97117.34
2022-10-12T20:17:58.881Z,97124.53
2022-10-12T20:20:55.965Z,97123.22
2022-10-12T20:23:52.890Z,97119.47
2022-10-12T20:26:50.777Z,97123.00
2022-10-12T20:29:47.716Z,97131.56
2022-10-12T20:32:44.718Z,97132.34
2022-10-12T20:35:50.720Z,97131.56
2022-10-12T20:38:47.557Z,97138.25
2022-10-12T20:41:44.420Z,97139.59
2022-10-12T20:44:41.265Z,97135.03
2022-10-12T20:47:38.097Z,97134.00
2022-10-12T20:50:35.140Z,97133.72
2022-10-12T20:53:33.543Z,97130.81
2022-10-12T20:56:32.822Z,97132.16
2022-10-12T20:59:31.664Z,97131.34
2022-10-12T21:02:28.504Z,97130.03
2022-10-12T21:05:25.473Z,97130.03
2022-10-12T21:08:22.404Z,97126.81
2022-10-12T21:11:19.754Z,97115.91
2022-10-12T21:14:16.617Z,97111.13
2022-10-12T21:17:13.521Z,97111.66
2022-10-12T21:20:10.780Z,97104.75
2022-10-12T21:23:07.629Z,97107.13
2022-10-12T21:26:19.791Z,97104.19
2022-10-12T21:29:16.624Z,97098.06
2022-10-12T21:32:13.453Z,97086.34
2022-10-12T21:35:10.285Z,97092.75
2022-10-12T21:38:07.593Z,97094.63
2022-10-12T21:41:06.165Z,97099.94
2022-10-12T21:44:03.301Z,97105.25
2022-10-12T21:47:00.135Z,97107.94
2022-10-12T21:49:56.964Z,97095.94
2022-10-12T21:52:59.298Z,97093.56
2022-10-12T21:55:57.216Z,97097.81
2022-10-12T21:58:59.446Z,97094.88
2022-10-12T22:01:56.336Z,97084.25
2022-10-12T22:04:53.169Z,97092.22
2022-10-12T22:07:50.024Z,97084.50
2022-10-12T22:10:46.856Z,97088.25
2022-10-12T22:13:43.722Z,97083.16
2022-10-12T22:16:43.174Z,97093.28
2022-10-12T22:19:40.130Z,97092.50
2022-10-12T22:22:37.004Z,97094.88
2022-10-12T22:25:33.866Z,97094.59
2022-10-12T22:28:30.956Z,97099.13
2022-10-12T22:31:28.456Z,97098.31
2022-10-12T22:34:25.309Z,97084.19
2022-10-12T22:37:22.547Z,97075.69
2022-10-12T22:40:19.393Z,97074.09
2022-10-12T22:43:16.236Z,97086.34
2022-10-12T22:46:13.238Z,97094.88
2022-10-12T22:49:10.086Z,97086.88
2022-10-12T22:52:06.932Z,97093.53
2022-10-12T22:55:04.058Z,97103.63
2022-10-12T22:58:00.932Z,97104.69
2022-10-12T23:01:17.501Z,97096.69
2022-10-12T23:04:14.334Z,97099.59
2022-10-12T23:07:11.226Z,97099.03
2022-10-12T23:10:08.679Z,97102.00
2022-10-12T23:13:05.503Z,97093.50
2022-10-12T23:16:17.904Z,97095.84
2022-10-12T23:19:14.839Z,97097.75
2022-10-12T23:22:11.712Z,97094.03
2022-10-12T23:25:08.545Z,97085.22
2022-10-12T23:28:05.406Z,97096.41
2022-10-12T23:31:07.477Z,97088.38
2022-10-12T23:34:06.536Z,97088.94
2022-10-12T23:37:03.415Z,97078.00
2022-10-12T23:40:00.251Z,97076.88
2022-10-12T23:42:57.090Z,97080.69
2022-10-12T23:45:55.417Z,97078.28
2022-10-12T23:48:52.294Z,97072.91
2022-10-12T23:51:49.135Z,97078.75
2022-10-12T23:54:45.980Z,97073.94
2022-10-12T23:57:47.249Z,97075.56
